sensor_id;sensor_type;location;lat;lon;timestamp;pressure;altitude;pressure_sealevel;temperature;humidity
39301;BME280;25019;42.626;23.380;2023-03-16T00:02:12;93529.25;;;0.96;100.00
39301;BME280;25019;42.626;23.380;2023-03-16T00:04:38;93536.50;;;0.94;100.00
39301;BME280;25019;42.626;23.380;2023-03-16T00:07:09;93537.34;;;0.87;100.00
39301;BME280;25019;42.626;23.380;2023-03-16T00:09:36;93541.75;;;0.87;100.00
39301;BME280;25019;42.626;23.380;2023-03-16T00:12:10;93538.31;;;0.93;100.00
39301;BME280;25019;42.626;23.380;2023-03-16T00:14:44;93538.53;;;0.92;100.00
39301;BME280;25019;42.626;23.380;2023-03-16T00:17:11;93514.50;;;0.69;100.00
39301;BME280;25019;42.626;23.380;2023-03-16T00:19:51;93538.59;;;0.78;100.00
39301;BME280;25019;42.626;23.380;2023-03-16T00:22:29;93537.19;;;0.76;100.00
39301;BME280;25019;42.626;23.380;2023-03-16T00:24:56;93531.63;;;0.58;100.00
39301;BME280;25019;42.626;23.380;2023-03-16T00:27:23;93534.03;;;0.67;100.00
39301;BME280;25019;42.626;23.380;2023-03-16T00:29:51;93531.03;;;0.56;100.00
39301;BME280;25019;42.626;23.380;2023-03-16T00:32:28;93554.53;;;0.63;100.00
39301;BME280;25019;42.626;23.380;2023-03-16T00:34:56;93491.81;;;0.18;100.00
39301;BME280;25019;42.626;23.380;2023-03-16T00:37:25;93550.53;;;0.61;100.00
39301;BME280;25019;42.626;23.380;2023-03-16T00:39:51;93563.19;;;0.57;100.00
39301;BME280;25019;42.626;23.380;2023-03-16T00:42:21;93563.59;;;0.61;100.00
39301;BME280;25019;42.626;23.380;2023-03-16T00:44:56;93561.78;;;0.61;100.00
39301;BME280;25019;42.626;23.380;2023-03-16T00:47:24;93536.53;;;0.41;100.00
39301;BME280;25019;42.626;23.380;2023-03-16T00:49:50;93560.00;;;0.48;100.00
39301;BME280;25019;42.626;23.380;2023-03-16T00:52:16;93563.28;;;0.37;100.00
39301;BME280;25019;42.626;23.380;2023-03-16T00:54:45;93512.34;;;0.01;100.00
39301;BME280;25019;42.626;23.380;2023-03-16T00:57:16;93529.19;;;0.11;100.00
39301;BME280;25019;42.626;23.380;2023-03-16T00:59:46;93572.13;;;0.36;100.00
39301;BME280;25019;42.626;23.380;2023-03-16T01:02:13;93568.50;;;0.30;100.00
39301;BME280;25019;42.626;23.380;2023-03-16T01:04:39;93569.53;;;0.22;100.00
39301;BME280;25019;42.626;23.380;2023-03-16T01:07:06;93580.59;;;0.18;100.00
39301;BME280;25019;42.626;23.380;2023-03-16T01:09:33;93501.53;;;-0.37;100.00
39301;BME280;25019;42.626;23.380;2023-03-16T01:12:06;93520.00;;;-0.11;100.00
39301;BME280;25019;42.626;23.380;2023-03-16T01:14:34;93566.53;;;0.19;100.00
39301;BME280;25019;42.626;23.380;2023-03-16T01:17:00;93570.97;;;0.11;100.00
39301;BME280;25019;42.626;23.380;2023-03-16T01:19:27;93576.97;;;0.19;100.00
39301;BME280;25019;42.626;23.380;2023-03-16T01:21:53;93568.53;;;0.17;100.00
39301;BME280;25019;42.626;23.380;2023-03-16T01:24:19;93569.72;;;0.14;100.00
39301;BME280;25019;42.626;23.380;2023-03-16T01:26:44;93572.56;;;0.12;100.00
39301;BME280;25019;42.626;23.380;2023-03-16T01:29:10;93572.97;;;0.09;100.00
39301;BME280;25019;42.626;23.380;2023-03-16T01:31:38;93564.16;;;0.04;100.00
39301;BME280;25019;42.626;23.380;2023-03-16T01:34:04;93525.22;;;-0.25;100.00
39301;BME280;25019;42.626;23.380;2023-03-16T01:36:31;93582.22;;;0.12;100.00
39301;BME280;25019;42.626;23.380;2023-03-16T01:39:02;93578.59;;;0.13;100.00
39301;BME280;25019;42.626;23.380;2023-03-16T01:41:35;93584.03;;;0.05;100.00
39301;BME280;25019;42.626;23.380;2023-03-16T01:44:01;93580.81;;;-0.04;100.00
39301;BME280;25019;42.626;23.380;2023-03-16T01:46:30;93580.22;;;-0.06;100.00
39301;BME280;25019;42.626;23.380;2023-03-16T01:49:10;93588.88;;;-0.19;100.00
39301;BME280;25019;42.626;23.380;2023-03-16T01:57:00;93584.47;;;-0.32;100.00
39301;BME280;25019;42.626;23.380;2023-03-16T01:59:41;93601.31;;;-0.28;100.00
39301;BME280;25019;42.626;23.380;2023-03-16T02:02:10;93591.88;;;-0.29;100.00
39301;BME280;25019;42.626;23.380;2023-03-16T02:04:45;93568.59;;;-0.44;100.00
39301;BME280;25019;42.626;23.380;2023-03-16T02:07:17;93531.66;;;-0.68;100.00
39301;BME280;25019;42.626;23.380;2023-03-16T02:09:47;93606.94;;;-0.24;100.00
39301;BME280;25019;42.626;23.380;2023-03-16T02:12:15;93584.63;;;-0.34;100.00
39301;BME280;25019;42.626;23.380;2023-03-16T02:14:50;93601.91;;;-0.19;100.00
39301;BME280;25019;42.626;23.380;2023-03-16T02:17:19;93610.34;;;-0.17;100.00
39301;BME280;25019;42.626;23.380;2023-03-16T02:22:45;93563.19;;;-0.49;100.00
39301;BME280;25019;42.626;23.380;2023-03-16T02:25:13;93617.56;;;-0.19;100.00
39301;BME280;25019;42.626;23.380;2023-03-16T02:30:32;93580.44;;;-0.41;100.00
39301;BME280;25019;42.626;23.380;2023-03-16T02:33:00;93638.06;;;-0.16;100.00
39301;BME280;25019;42.626;23.380;2023-03-16T02:35:26;93625.00;;;-0.23;100.00
39301;BME280;25019;42.626;23.380;2023-03-16T02:37:52;93626.00;;;-0.24;100.00
39301;BME280;25019;42.626;23.380;2023-03-16T02:40:21;93586.66;;;-0.56;100.00
39301;BME280;25019;42.626;23.380;2023-03-16T02:43:02;93585.03;;;-0.64;100.00
39301;BME280;25019;42.626;23.380;2023-03-16T02:45:54;93629.41;;;-0.37;100.00
39301;BME280;25019;42.626;23.380;2023-03-16T02:48:28;93636.25;;;-0.29;100.00
39301;BME280;25019;42.626;23.380;2023-03-16T02:50:56;93634.44;;;-0.28;100.00
39301;BME280;25019;42.626;23.380;2023-03-16T02:53:22;93650.31;;;-0.30;100.00
39301;BME280;25019;42.626;23.380;2023-03-16T02:55:48;93642.25;;;-0.28;100.00
39301;BME280;25019;42.626;23.380;2023-03-16T02:58:14;93561.53;;;-0.84;100.00
39301;BME280;25019;42.626;23.380;2023-03-16T03:00:41;93599.44;;;-0.68;100.00
39301;BME280;25019;42.626;23.380;2023-03-16T03:03:07;93651.91;;;-0.29;100.00
39301;BME280;25019;42.626;23.380;2023-03-16T03:05:34;93654.31;;;-0.34;100.00
39301;BME280;25019;42.626;23.380;2023-03-16T03:08:00;93648.66;;;-0.44;100.00
39301;BME280;25019;42.626;23.380;2023-03-16T03:10:29;93556.47;;;-1.06;100.00
39301;BME280;25019;42.626;23.380;2023-03-16T03:12:58;93623.53;;;-0.72;100.00
39301;BME280;25019;42.626;23.380;2023-03-16T03:15:24;93619.31;;;-0.80;100.00
39301;BME280;25019;42.626;23.380;2023-03-16T03:18:09;93596.78;;;-1.01;100.00
39301;BME280;25019;42.626;23.380;2023-03-16T03:20:35;93594.00;;;-1.00;100.00
39301;BME280;25019;42.626;23.380;2023-03-16T03:23:01;93649.25;;;-0.49;100.00
39301;BME280;25019;42.626;23.380;2023-03-16T03:25:29;93618.91;;;-0.84;100.00
39301;BME280;25019;42.626;23.380;2023-03-16T03:27:55;93602.19;;;-1.03;100.00
39301;BME280;25019;42.626;23.380;2023-03-16T03:30:23;93652.81;;;-0.64;100.00
39301;BME280;25019;42.626;23.380;2023-03-16T03:32:49;93594.34;;;-1.10;100.00
39301;BME280;25019;42.626;23.380;2023-03-16T03:35:18;93656.03;;;-0.68;100.00
39301;BME280;25019;42.626;23.380;2023-03-16T03:37:44;93676.91;;;-0.55;100.00
39301;BME280;25019;42.626;23.380;2023-03-16T03:40:13;93668.28;;;-0.62;100.00
39301;BME280;25019;42.626;23.380;2023-03-16T03:42:40;93679.28;;;-0.67;100.00
39301;BME280;25019;42.626;23.380;2023-03-16T03:45:07;93624.81;;;-1.10;100.00
39301;BME280;25019;42.626;23.380;2023-03-16T03:47:34;93681.09;;;-0.74;100.00
39301;BME280;25019;42.626;23.380;2023-03-16T03:50:01;93677.69;;;-0.74;100.00
39301;BME280;25019;42.626;23.380;2023-03-16T03:52:29;93691.31;;;-0.79;100.00
39301;BME280;25019;42.626;23.380;2023-03-16T03:54:54;93697.31;;;-0.79;100.00
39301;BME280;25019;42.626;23.380;2023-03-16T03:57:20;93711.78;;;-0.76;100.00
39301;BME280;25019;42.626;23.380;2023-03-16T03:59:46;93645.44;;;-1.15;100.00
39301;BME280;25019;42.626;23.380;2023-03-16T04:02:23;93659.31;;;-1.08;100.00
39301;BME280;25019;42.626;23.380;2023-03-16T04:04:52;93698.53;;;-0.74;100.00
39301;BME280;25019;42.626;23.380;2023-03-16T04:07:18;93651.28;;;-1.07;100.00
39301;BME280;25019;42.626;23.380;2023-03-16T04:09:45;93710.81;;;-0.68;100.00
39301;BME280;25019;42.626;23.380;2023-03-16T04:12:22;93708.97;;;-0.74;100.00
39301;BME280;25019;42.626;23.380;2023-03-16T04:14:48;93686.25;;;-0.87;100.00
39301;BME280;25019;42.626;23.380;2023-03-16T04:17:15;93710.41;;;-0.72;100.00
39301;BME280;25019;42.626;23.380;2023-03-16T04:19:41;93707.97;;;-0.73;100.00
39301;BME280;25019;42.626;23.380;2023-03-16T04:22:11;93717.81;;;-0.69;100.00
39301;BME280;25019;42.626;23.380;2023-03-16T04:24:38;93715.81;;;-0.67;100.00
39301;BME280;25019;42.626;23.380;2023-03-16T04:27:03;93719.63;;;-0.69;100.00
39301;BME280;25019;42.626;23.380;2023-03-16T04:29:29;93726.44;;;-0.68;100.00
39301;BME280;25019;42.626;23.380;2023-03-16T04:31:57;93731.03;;;-0.77;100.00
39301;BME280;25019;42.626;23.380;2023-03-16T04:34:23;93737.25;;;-0.78;100.00
39301;BME280;25019;42.626;23.380;2023-03-16T04:36:53;93730.44;;;-0.79;100.00
39301;BME280;25019;42.626;23.380;2023-03-16T04:39:21;93737.03;;;-0.77;100.00
39301;BME280;25019;42.626;23.380;2023-03-16T04:41:46;93685.16;;;-1.13;100.00
39301;BME280;25019;42.626;23.380;2023-03-16T04:44:18;93737.25;;;-0.78;100.00
39301;BME280;25019;42.626;23.380;2023-03-16T04:46:43;93754.69;;;-0.79;100.00
39301;BME280;25019;42.626;23.380;2023-03-16T04:49:10;93749.09;;;-0.76;100.00
39301;BME280;25019;42.626;23.380;2023-03-16T04:51:38;93708.59;;;-1.13;100.00
39301;BME280;25019;42.626;23.380;2023-03-16T04:54:12;93759.91;;;-0.79;100.00
39301;BME280;25019;42.626;23.380;2023-03-16T04:56:40;93767.94;;;-0.73;100.00
39301;BME280;25019;42.626;23.380;2023-03-16T04:59:13;93768.53;;;-0.78;100.00
39301;BME280;25019;42.626;23.380;2023-03-16T05:01:44;93769.69;;;-0.87;100.00
39301;BME280;25019;42.626;23.380;2023-03-16T05:04:12;93779.16;;;-0.80;100.00
39301;BME280;25019;42.626;23.380;2023-03-16T05:06:37;93764.09;;;-0.84;100.00
39301;BME280;25019;42.626;23.380;2023-03-16T05:09:03;93783.22;;;-0.70;100.00
39301;BME280;25019;42.626;23.380;2023-03-16T05:11:35;93780.41;;;-0.69;100.00
39301;BME280;25019;42.626;23.380;2023-03-16T05:14:02;93777.38;;;-0.72;100.00
39301;BME280;25019;42.626;23.380;2023-03-16T05:16:31;93722.44;;;-1.13;100.00
39301;BME280;25019;42.626;23.380;2023-03-16T05:18:58;93782.00;;;-0.68;100.00
39301;BME280;25019;42.626;23.380;2023-03-16T05:21:26;93740.97;;;-1.01;100.00
39301;BME280;25019;42.626;23.380;2023-03-16T05:23:58;93678.41;;;-1.43;100.00
39301;BME280;25019;42.626;23.380;2023-03-16T05:26:27;93793.44;;;-0.69;100.00
39301;BME280;25019;42.626;23.380;2023-03-16T05:28:53;93799.84;;;-0.71;100.00
39301;BME280;25019;42.626;23.380;2023-03-16T05:31:23;93797.25;;;-0.71;100.00
39301;BME280;25019;42.626;23.380;2023-03-16T05:33:53;93799.88;;;-0.65;100.00
39301;BME280;25019;42.626;23.380;2023-03-16T05:36:19;93748.94;;;-1.09;100.00
39301;BME280;25019;42.626;23.380;2023-03-16T05:38:48;93807.31;;;-0.62;100.00
39301;BME280;25019;42.626;23.380;2023-03-16T05:41:40;93725.63;;;-1.11;100.00
39301;BME280;25019;42.626;23.380;2023-03-16T05:44:32;93815.00;;;-0.53;100.00
39301;BME280;25019;42.626;23.380;2023-03-16T05:47:19;93740.53;;;-1.04;100.00
39301;BME280;25019;42.626;23.380;2023-03-16T05:49:51;93822.22;;;-0.49;100.00
39301;BME280;25019;42.626;23.380;2023-03-16T05:52:38;93822.81;;;-0.60;100.00
39301;BME280;25019;42.626;23.380;2023-03-16T05:55:12;93822.13;;;-0.69;100.00
39301;BME280;25019;42.626;23.380;2023-03-16T05:57:39;93803.22;;;-0.78;100.00
39301;BME280;25019;42.626;23.380;2023-03-16T06:00:11;93832.44;;;-0.54;100.00
39301;BME280;25019;42.626;23.380;2023-03-16T06:02:46;93840.88;;;-0.52;100.00
39301;BME280;25019;42.626;23.380;2023-03-16T06:05:13;93832.41;;;-0.61;100.00
39301;BME280;25019;42.626;23.380;2023-03-16T06:07:41;93783.09;;;-0.91;100.00
39301;BME280;25019;42.626;23.380;2023-03-16T06:10:08;93787.53;;;-0.91;100.00
39301;BME280;25019;42.626;23.380;2023-03-16T06:12:35;93841.09;;;-0.53;100.00
39301;BME280;25019;42.626;23.380;2023-03-16T06:15:01;93843.09;;;-0.49;100.00
39301;BME280;25019;42.626;23.380;2023-03-16T06:17:29;93845.53;;;-0.47;100.00
39301;BME280;25019;42.626;23.380;2023-03-16T06:19:55;93855.41;;;-0.36;100.00
39301;BME280;25019;42.626;23.380;2023-03-16T06:22:21;93856.59;;;-0.45;100.00
39301;BME280;25019;42.626;23.380;2023-03-16T06:24:48;93857.59;;;-0.39;100.00
39301;BME280;25019;42.626;23.380;2023-03-16T06:27:14;93865.63;;;-0.41;100.00
39301;BME280;25019;42.626;23.380;2023-03-16T06:29:57;93865.06;;;-0.36;100.00
39301;BME280;25019;42.626;23.380;2023-03-16T06:32:22;93838.19;;;-0.30;100.00
39301;BME280;25019;42.626;23.380;2023-03-16T06:34:48;93873.03;;;0.04;100.00
39301;BME280;25019;42.626;23.380;2023-03-16T06:37:17;93869.25;;;0.13;100.00
39301;BME280;25019;42.626;23.380;2023-03-16T06:39:43;93883.94;;;0.14;100.00
39301;BME280;25019;42.626;23.380;2023-03-16T06:42:09;93892.00;;;0.33;100.00
39301;BME280;25019;42.626;23.380;2023-03-16T06:44:36;93889.38;;;0.33;100.00
39301;BME280;25019;42.626;23.380;2023-03-16T06:47:06;93902.28;;;0.48;100.00
39301;BME280;25019;42.626;23.380;2023-03-16T06:49:32;93883.78;;;0.43;100.00
39301;BME280;25019;42.626;23.380;2023-03-16T06:51:59;93906.13;;;0.52;100.00
39301;BME280;25019;42.626;23.380;2023-03-16T06:54:29;93884.56;;;0.30;100.00
39301;BME280;25019;42.626;23.380;2023-03-16T06:56:57;93883.38;;;0.33;100.00
39301;BME280;25019;42.626;23.380;2023-03-16T06:59:22;93851.38;;;0.17;100.00
39301;BME280;25019;42.626;23.380;2023-03-16T07:01:49;93875.50;;;0.19;100.00
39301;BME280;25019;42.626;23.380;2023-03-16T07:04:15;93851.34;;;-0.03;100.00
39301;BME280;25019;42.626;23.380;2023-03-16T07:06:41;93908.88;;;0.31;100.00
39301;BME280;25019;42.626;23.380;2023-03-16T07:09:07;93855.66;;;-0.24;100.00
39301;BME280;25019;42.626;23.380;2023-03-16T07:11:34;93927.34;;;0.22;100.00
39301;BME280;25019;42.626;23.380;2023-03-16T07:14:00;93845.56;;;-0.40;100.00
39301;BME280;25019;42.626;23.380;2023-03-16T07:16:28;93919.63;;;0.01;100.00
39301;BME280;25019;42.626;23.380;2023-03-16T07:18:56;93931.69;;;0.08;100.00
39301;BME280;25019;42.626;23.380;2023-03-16T07:21:23;93930.69;;;0.09;100.00
39301;BME280;25019;42.626;23.380;2023-03-16T07:23:49;93935.75;;;0.11;100.00
39301;BME280;25019;42.626;23.380;2023-03-16T07:26:20;93847.75;;;-0.44;100.00
39301;BME280;25019;42.626;23.380;2023-03-16T07:28:51;93880.63;;;-0.08;100.00
39301;BME280;25019;42.626;23.380;2023-03-16T07:31:17;93940.41;;;0.29;100.00
39301;BME280;25019;42.626;23.380;2023-03-16T07:33:44;93938.38;;;0.18;100.00
39301;BME280;25019;42.626;23.380;2023-03-16T07:36:14;93953.91;;;0.33;100.00
39301;BME280;25019;42.626;23.380;2023-03-16T07:38:46;93948.28;;;0.36;100.00
39301;BME280;25019;42.626;23.380;2023-03-16T07:41:12;93890.13;;;0.07;100.00
39301;BME280;25019;42.626;23.380;2023-03-16T07:43:39;93963.16;;;0.42;100.00
39301;BME280;25019;42.626;23.380;2023-03-16T07:46:08;93899.13;;;0.04;100.00
39301;BME280;25019;42.626;23.380;2023-03-16T07:48:42;93942.06;;;0.37;100.00
39301;BME280;25019;42.626;23.380;2023-03-16T07:51:11;93964.28;;;0.68;100.00
39301;BME280;25019;42.626;23.380;2023-03-16T07:53:38;93897.00;;;0.28;100.00
39301;BME280;25019;42.626;23.380;2023-03-16T07:56:33;93953.00;;;0.61;100.00
39301;BME280;25019;42.626;23.380;2023-03-16T07:59:00;93962.06;;;0.85;100.00
39301;BME280;25019;42.626;23.380;2023-03-16T08:01:28;93950.81;;;0.91;100.00
39301;BME280;25019;42.626;23.380;2023-03-16T08:03:54;93964.72;;;1.05;100.00
39301;BME280;25019;42.626;23.380;2023-03-16T08:06:20;93963.31;;;1.09;100.00
39301;BME280;25019;42.626;23.380;2023-03-16T08:08:46;93948.03;;;0.99;100.00
39301;BME280;25019;42.626;23.380;2023-03-16T08:11:22;93969.78;;;1.20;100.00
39301;BME280;25019;42.626;23.380;2023-03-16T08:13:53;93975.22;;;1.25;100.00
39301;BME280;25019;42.626;23.380;2023-03-16T08:16:23;93978.63;;;1.39;100.00
39301;BME280;25019;42.626;23.380;2023-03-16T08:18:49;93973.59;;;1.51;100.00
39301;BME280;25019;42.626;23.380;2023-03-16T08:21:18;93977.41;;;1.62;100.00
39301;BME280;25019;42.626;23.380;2023-03-16T08:23:44;93990.31;;;1.70;100.00
39301;BME280;25019;42.626;23.380;2023-03-16T08:26:19;93998.34;;;1.62;100.00
39301;BME280;25019;42.626;23.380;2023-03-16T08:28:46;93991.53;;;1.54;100.00
39301;BME280;25019;42.626;23.380;2023-03-16T08:31:17;93977.59;;;1.54;100.00
39301;BME280;25019;42.626;23.380;2023-03-16T08:34:03;93977.22;;;1.43;100.00
39301;BME280;25019;42.626;23.380;2023-03-16T08:36:31;93990.91;;;1.72;100.00
39301;BME280;25019;42.626;23.380;2023-03-16T08:38:57;93993.91;;;1.56;100.00
39301;BME280;25019;42.626;23.380;2023-03-16T08:41:24;93976.41;;;1.16;100.00
39301;BME280;25019;42.626;23.380;2023-03-16T08:43:51;93999.34;;;1.41;100.00
39301;BME280;25019;42.626;23.380;2023-03-16T08:46:17;94009.03;;;1.60;100.00
39301;BME280;25019;42.626;23.380;2023-03-16T08:48:52;94006.00;;;1.50;100.00
39301;BME280;25019;42.626;23.380;2023-03-16T08:51:22;93963.94;;;1.18;100.00
39301;BME280;25019;42.626;23.380;2023-03-16T08:53:47;93995.94;;;1.40;100.00
39301;BME280;25019;42.626;23.380;2023-03-16T08:56:13;94006.22;;;1.55;100.00
39301;BME280;25019;42.626;23.380;2023-03-16T08:58:40;94018.91;;;1.78;100.00
39301;BME280;25019;42.626;23.380;2023-03-16T09:01:14;94015.69;;;1.63;100.00
39301;BME280;25019;42.626;23.380;2023-03-16T09:03:42;94021.31;;;1.73;100.00
39301;BME280;25019;42.626;23.380;2023-03-16T09:06:11;94014.25;;;1.74;100.00
39301;BME280;25019;42.626;23.380;2023-03-16T09:08:41;94018.69;;;1.73;100.00
39301;BME280;25019;42.626;23.380;2023-03-16T09:11:12;94024.13;;;1.72;100.00
39301;BME280;25019;42.626;23.380;2023-03-16T09:13:39;94020.09;;;1.56;100.00
39301;BME280;25019;42.626;23.380;2023-03-16T09:16:06;94022.53;;;1.57;100.00
39301;BME280;25019;42.626;23.380;2023-03-16T09:18:33;94028.78;;;1.56;100.00
39301;BME280;25019;42.626;23.380;2023-03-16T09:21:04;94036.63;;;1.49;100.00
39301;BME280;25019;42.626;23.380;2023-03-16T09:23:30;94038.44;;;1.49;100.00
39301;BME280;25019;42.626;23.380;2023-03-16T09:25:58;94031.81;;;1.67;100.00
39301;BME280;25019;42.626;23.380;2023-03-16T09:28:25;94022.31;;;1.59;100.00
39301;BME280;25019;42.626;23.380;2023-03-16T09:30:54;94029.78;;;1.48;100.00
39301;BME280;25019;42.626;23.380;2023-03-16T09:33:22;94033.81;;;1.38;100.00
39301;BME280;25019;42.626;23.380;2023-03-16T09:35:48;94008.22;;;1.26;100.00
39301;BME280;25019;42.626;23.380;2023-03-16T09:38:15;94046.69;;;1.46;100.00
39301;BME280;25019;42.626;23.380;2023-03-16T09:40:42;94029.78;;;1.48;100.00
39301;BME280;25019;42.626;23.380;2023-03-16T09:46:14;94029.78;;;1.48;100.00
39301;BME280;25019;42.626;23.380;2023-03-16T09:48:43;94023.34;;;1.64;100.00
39301;BME280;25019;42.626;23.380;2023-03-16T09:51:24;94033.41;;;1.74;100.00
39301;BME280;25019;42.626;23.380;2023-03-16T09:53:58;94041.25;;;1.74;100.00
39301;BME280;25019;42.626;23.380;2023-03-16T09:56:34;93975.63;;;1.36;100.00
39301;BME280;25019;42.626;23.380;2023-03-16T09:59:12;94046.09;;;1.77;100.00
39301;BME280;25019;42.626;23.380;2023-03-16T10:05:26;94046.28;;;1.89;100.00
39301;BME280;25019;42.626;23.380;2023-03-16T10:07:49;94044.44;;;1.97;100.00
39301;BME280;25019;42.626;23.380;2023-03-16T10:15:56;93995.94;;;1.27;100.00
39301;BME280;25019;42.626;23.380;2023-03-16T10:18:34;93970.16;;;1.17;100.00
39301;BME280;25019;42.626;23.380;2023-03-16T10:21:04;94045.69;;;1.67;100.00
39301;BME280;25019;42.626;23.380;2023-03-16T10:23:31;94036.81;;;1.48;100.00
39301;BME280;25019;42.626;23.380;2023-03-16T10:26:04;94052.75;;;1.67;100.00
39301;BME280;25019;42.626;23.380;2023-03-16T10:28:32;94003.59;;;1.28;100.00
39301;BME280;25019;42.626;23.380;2023-03-16T10:30:59;94053.13;;;1.77;100.00
39301;BME280;25019;42.626;23.380;2023-03-16T10:33:30;94057.97;;;1.80;100.00
39301;BME280;25019;42.626;23.380;2023-03-16T10:38:55;94051.50;;;2.03;100.00
39301;BME280;25019;42.626;23.380;2023-03-16T10:41:42;94063.78;;;2.09;100.00
39301;BME280;25019;42.626;23.380;2023-03-16T10:46:39;94054.31;;;2.08;100.00
39301;BME280;25019;42.626;23.380;2023-03-16T10:49:27;94057.13;;;2.20;100.00
39301;BME280;25019;42.626;23.380;2023-03-16T10:51:55;94050.47;;;2.24;100.00
39301;BME280;25019;42.626;23.380;2023-03-16T10:54:29;94060.13;;;2.30;100.00
39301;BME280;25019;42.626;23.380;2023-03-16T10:56:57;94058.75;;;2.14;100.00
39301;BME280;25019;42.626;23.380;2023-03-16T10:59:28;94053.91;;;2.11;100.00
39301;BME280;25019;42.626;23.380;2023-03-16T11:01:55;94054.72;;;2.12;100.00
39301;BME280;25019;42.626;23.380;2023-03-16T11:04:21;94049.25;;;2.20;100.00
39301;BME280;25019;42.626;23.380;2023-03-16T11:06:56;94057.91;;;2.34;100.00
39301;BME280;25019;42.626;23.380;2023-03-16T11:09:33;94059.31;;;2.36;100.00
39301;BME280;25019;42.626;23.380;2023-03-16T11:11:59;94043.22;;;2.19;100.00
39301;BME280;25019;42.626;23.380;2023-03-16T11:14:36;94054.88;;;2.23;100.00
39301;BME280;25019;42.626;23.380;2023-03-16T11:17:18;94053.50;;;2.21;100.00
39301;BME280;25019;42.626;23.380;2023-03-16T11:19:53;94048.03;;;2.29;100.00
39301;BME280;25019;42.626;23.380;2023-03-16T11:22:24;94051.88;;;2.20;100.00
39301;BME280;25019;42.626;23.380;2023-03-16T11:27:48;94058.94;;;2.13;100.00
39301;BME280;25019;42.626;23.380;2023-03-16T11:30:37;94059.94;;;2.12;100.00
39301;BME280;25019;42.626;23.380;2023-03-16T11:33:08;94049.91;;;1.95;100.00
39301;BME280;25019;42.626;23.380;2023-03-16T11:35:37;94067.03;;;2.04;100.00
39301;BME280;25019;42.626;23.380;2023-03-16T11:46:32;94067.44;;;2.01;100.00
39301;BME280;25019;42.626;23.380;2023-03-16T11:57:06;94003.81;;;1.33;100.00
39301;BME280;25019;42.626;23.380;2023-03-16T12:08:49;93909.78;;;0.65;100.00
39301;BME280;25019;42.626;23.380;2023-03-16T12:11:53;94019.69;;;1.32;100.00
39301;BME280;25019;42.626;23.380;2023-03-16T12:22:07;93744.34;;;-0.52;100.00
39301;BME280;25019;42.626;23.380;2023-03-16T12:43:02;94041.84;;;1.36;100.00
39301;BME280;25019;42.626;23.380;2023-03-16T12:48:35;93920.41;;;0.63;100.00
39301;BME280;25019;42.626;23.380;2023-03-16T12:51:03;93995.50;;;0.89;100.00
39301;BME280;25019;42.626;23.380;2023-03-16T12:53:40;94100.84;;;1.52;100.00
39301;BME280;25019;42.626;23.380;2023-03-16T12:56:09;94001.31;;;0.92;100.00
39301;BME280;25019;42.626;23.380;2023-03-16T12:58:45;93841.59;;;-0.23;100.00
39301;BME280;25019;42.626;23.380;2023-03-16T13:01:13;93837.63;;;-0.12;100.00
39301;BME280;25019;42.626;23.380;2023-03-16T13:03:57;94118.13;;;1.40;100.00
39301;BME280;25019;42.626;23.380;2023-03-16T13:06:34;93921.16;;;-0.12;100.00
39301;BME280;25019;42.626;23.380;2023-03-16T13:09:05;94125.75;;;1.28;100.00
39301;BME280;25019;42.626;23.380;2023-03-16T13:11:49;93849.31;;;-0.50;100.00
39301;BME280;25019;42.626;23.380;2023-03-16T13:19:45;93994.94;;;0.39;100.00
39301;BME280;25019;42.626;23.380;2023-03-16T13:22:28;94017.22;;;0.35;100.00
39301;BME280;25019;42.626;23.380;2023-03-16T13:25:15;94134.34;;;1.15;100.00
39301;BME280;25019;42.626;23.380;2023-03-16T13:27:50;94056.16;;;0.65;100.00
39301;BME280;25019;42.626;23.380;2023-03-16T13:30:28;93954.94;;;-0.04;100.00
39301;BME280;25019;42.626;23.380;2023-03-16T13:32:59;94146.88;;;1.19;100.00
39301;BME280;25019;42.626;23.380;2023-03-16T13:35:28;93988.72;;;0.40;100.00
39301;BME280;25019;42.626;23.380;2023-03-16T13:38:02;94065.47;;;0.81;100.00
39301;BME280;25019;42.626;23.380;2023-03-16T13:40:30;93920.59;;;-0.07;100.00
39301;BME280;25019;42.626;23.380;2023-03-16T13:43:00;93872.38;;;-0.53;100.00
39301;BME280;25019;42.626;23.380;2023-03-16T13:45:31;94161.59;;;1.41;100.00
39301;BME280;25019;42.626;23.380;2023-03-16T13:47:58;94023.94;;;0.57;100.00
39301;BME280;25019;42.626;23.380;2023-03-16T13:50:39;93834.59;;;-0.71;100.00
39301;BME280;25019;42.626;23.380;2023-03-16T13:56:04;94173.34;;;1.52;100.00
39301;BME280;25019;42.626;23.380;2023-03-16T13:58:33;93918.00;;;-0.07;100.00
39301;BME280;25019;42.626;23.380;2023-03-16T14:01:01;94161.03;;;1.45;100.00
39301;BME280;25019;42.626;23.380;2023-03-16T14:03:39;94158.59;;;1.44;100.00
39301;BME280;25019;42.626;23.380;2023-03-16T14:06:22;93866.16;;;-0.52;100.00
39301;BME280;25019;42.626;23.380;2023-03-16T14:08:52;94165.66;;;1.37;100.00
39301;BME280;25019;42.626;23.380;2023-03-16T14:11:21;93890.44;;;-0.52;100.00
39301;BME280;25019;42.626;23.380;2023-03-16T14:13:52;94156.56;;;1.32;100.00
39301;BME280;25019;42.626;23.380;2023-03-16T14:16:22;93997.25;;;0.20;100.00
39301;BME280;25019;42.626;23.380;2023-03-16T14:19:05;93900.47;;;-0.55;100.00
39301;BME280;25019;42.626;23.380;2023-03-16T14:21:41;94034.41;;;0.16;100.00
39301;BME280;25019;42.626;23.380;2023-03-16T14:24:28;93999.53;;;-0.05;100.00
39301;BME280;25019;42.626;23.380;2023-03-16T14:26:55;94173.78;;;1.07;100.00
39301;BME280;25019;42.626;23.380;2023-03-16T14:29:35;93886.69;;;-0.78;100.00
39301;BME280;25019;42.626;23.380;2023-03-16T14:32:25;93904.28;;;-0.86;100.00
39301;BME280;25019;42.626;23.380;2023-03-16T14:35:19;94097.59;;;0.33;100.00
39301;BME280;25019;42.626;23.380;2023-03-16T14:37:48;93955.03;;;-0.54;100.00